Time;durP1;ratioP1;P1;durP2;ratioP2;P2;SDS_P1;SDS_P2;PMS_P1;PMS_P2;Temp;Humidity;BMP_temperature;BMP_pressure;BME280_temperature;BME280_humidity;BME280_pressure;Samples;Min_cycle;Max_cycle;Signal;HPM_P1;HPM_P2
2021/05/07 00:00:14;;;;;;;6.53;5.78;;;;;;;-146.32;100.00;63746.28;663383;29;23453;-63
2021/05/07 00:00:35;;;;;;;6.22;5.57;;;;;;;-146.32;100.00;63746.28;662731;29;46273;-63
2021/05/07 00:00:57;;;;;;;6.72;5.28;;;;;;;-146.32;100.00;63746.28;664016;29;23518;-60
2021/05/07 00:01:18;;;;;;;5.93;5.20;;;;;;;-146.32;100.00;63746.28;663250;29;46445;-63
2021/05/07 00:01:39;;;;;;;6.00;5.10;;;;;;;-146.32;100.00;63746.28;662927;29;46300;-63
2021/05/07 00:02:00;;;;;;;5.75;5.15;;;;;;;-146.32;100.00;63746.28;663784;29;23496;-64
2021/05/07 00:02:22;;;;;;;5.13;4.72;;;;;;;-146.32;100.00;63746.28;663543;29;23398;-60
2021/05/07 00:02:44;;;;;;;5.28;4.78;;;;;;;-146.32;100.00;63746.28;663844;29;23431;-61
2021/05/07 00:03:05;;;;;;;5.43;4.93;;;;;;;-146.32;100.00;63746.28;663186;29;46294;-62
2021/05/07 00:03:27;;;;;;;5.07;4.57;;;;;;;-146.32;100.00;63746.28;663668;29;22421;-63
2021/05/07 00:03:48;;;;;;;5.00;4.50;;;;;;;-146.32;100.00;63746.28;662916;29;44155;-62
2021/05/07 00:04:09;;;;;;;5.25;4.75;;;;;;;-146.32;100.00;63746.28;663247;29;23374;-61
2021/05/07 00:04:30;;;;;;;5.45;4.85;;;;;;;-146.32;100.00;63746.28;662645;29;46333;-63
2021/05/07 00:04:52;;;;;;;5.22;4.63;;;;;;;-146.32;100.00;63746.28;663506;29;21551;-62
2021/05/07 00:05:13;;;;;;;5.15;4.65;;;;;;;-146.32;100.00;63746.28;663624;29;21536;-64
2021/05/07 00:05:35;;;;;;;4.95;4.55;;;;;;;-146.32;100.00;63746.28;661058;29;21815;-62
2021/05/07 00:05:56;;;;;;;4.72;4.32;;;;;;;-146.32;100.00;63746.28;660557;29;46116;-62
2021/05/07 00:06:18;;;;;;;4.88;4.38;;;;;;;-146.32;100.00;63746.28;661229;29;22554;-63
2021/05/07 00:06:39;;;;;;;4.90;4.40;;;;;;;-146.32;100.00;63746.28;660500;29;45311;-62
2021/05/07 00:07:00;;;;;;;5.25;4.75;;;;;;;-146.32;100.00;63746.28;660982;29;23491;-62
2021/05/07 00:07:21;;;;;;;5.13;4.70;;;;;;;-146.32;100.00;63746.28;661318;29;22460;-61
2021/05/07 00:07:42;;;;;;;5.20;4.70;;;;;;;-146.32;100.00;63746.28;662899;29;44459;-63
2021/05/07 00:08:04;;;;;;;4.97;4.40;;;;;;;-146.32;100.00;63746.28;663322;29;21585;-63
2021/05/07 00:08:26;;;;;;;4.72;4.28;;;;;;;-146.32;100.00;63746.28;663424;29;22176;-63
2021/05/07 00:08:48;;;;;;;4.85;4.35;;;;;;;-146.32;100.00;63746.28;661852;29;69464;-62
2021/05/07 00:09:09;;;;;;;5.03;4.47;;;;;;;-146.32;100.00;63746.28;663807;29;18337;-63
2021/05/07 00:09:30;;;;;;;4.80;4.40;;;;;;;-146.32;100.00;63746.28;663639;29;905;-61
2021/05/07 00:09:51;;;;;;;4.72;4.32;;;;;;;-146.32;100.00;63746.28;663712;29;22469;-63
2021/05/07 00:10:13;;;;;;;5.55;4.93;;;;;;;-146.32;100.00;63746.28;664343;29;14178;-62
2021/05/07 00:10:35;;;;;;;7.75;4.60;;;;;;;-146.32;100.00;63746.28;663167;29;23814;-63
2021/05/07 00:10:57;;;;;;;5.43;4.22;;;;;;;-146.32;100.00;63746.28;663184;29;43311;-62
2021/05/07 00:11:18;;;;;;;4.60;4.20;;;;;;;-146.32;100.00;63746.28;662166;29;70491;-62
2021/05/07 00:11:39;;;;;;;5.10;4.60;;;;;;;-146.32;100.00;63746.28;663139;29;21495;-63
2021/05/07 00:12:04;;;;;;;4.65;4.28;;;;;;;-146.32;100.00;63746.28;663664;29;23820;-63
2021/05/07 00:12:25;;;;;;;4.88;4.50;;;;;;;-146.32;100.00;63746.28;661185;29;90731;-63
2021/05/07 00:12:46;;;;;;;5.15;4.65;;;;;;;-146.32;100.00;63746.28;663060;29;22424;-63
2021/05/07 00:13:07;;;;;;;5.47;4.82;;;;;;;-146.32;100.00;63746.28;663752;29;22396;-62
2021/05/07 00:13:28;;;;;;;4.55;4.15;;;;;;;-146.32;100.00;63746.28;663691;29;24118;-62
2021/05/07 00:13:50;;;;;;;4.10;3.80;;;;;;;-146.32;100.00;63746.28;663598;29;22384;-63
2021/05/07 00:14:11;;;;;;;4.68;4.28;;;;;;;-146.32;100.00;63746.28;662459;29;46379;-64
2021/05/07 00:14:32;;;;;;;4.55;4.22;;;;;;;-146.32;100.00;63746.28;663892;29;21487;-63
2021/05/07 00:14:55;;;;;;;4.47;4.07;;;;;;;-146.32;100.00;63746.28;664298;29;1006;-63
2021/05/07 00:15:17;;;;;;;4.40;4.10;;;;;;;-146.32;100.00;63746.28;663938;29;21510;-62
2021/05/07 00:15:38;;;;;;;4.45;4.15;;;;;;;-146.32;100.00;63746.28;662994;29;45333;-61
2021/05/07 00:15:59;;;;;;;4.38;3.97;;;;;;;-146.32;100.00;63746.28;664216;29;14698;-62
2021/05/07 00:16:21;;;;;;;4.45;4.05;;;;;;;-146.32;100.00;63746.28;664282;29;1548;-63
2021/05/07 00:16:43;;;;;;;4.43;4.03;;;;;;;-146.32;100.00;63746.28;664573;29;875;-62
2021/05/07 00:17:05;;;;;;;4.43;4.03;;;;;;;-146.32;100.00;63746.28;663650;29;21586;-63
2021/05/07 00:17:26;;;;;;;4.40;4.00;;;;;;;-146.32;100.00;63746.28;663183;29;46385;-63
2021/05/07 00:17:47;;;;;;;4.40;4.00;;;;;;;-146.32;100.00;63746.28;663992;29;22477;-62
2021/05/07 00:18:08;;;;;;;4.40;4.10;;;;;;;-146.32;100.00;63746.28;664099;29;10841;-63
2021/05/07 00:18:29;;;;;;;5.03;4.53;;;;;;;-146.32;100.00;63746.28;664675;29;1070;-64
2021/05/07 00:18:50;;;;;;;4.75;4.35;;;;;;;-146.32;100.00;63746.28;664195;29;13847;-62
2021/05/07 00:19:12;;;;;;;4.85;4.40;;;;;;;-146.32;100.00;63746.28;662887;29;46277;-63
2021/05/07 00:19:33;;;;;;;5.07;4.57;;;;;;;-146.32;100.00;63746.28;663427;29;23803;-62
2021/05/07 00:19:54;;;;;;;4.40;4.00;;;;;;;-146.32;100.00;63746.28;663957;29;23519;-62
2021/05/07 00:20:15;;;;;;;4.18;3.88;;;;;;;-146.32;100.00;63746.28;664624;29;906;-61
2021/05/07 00:20:36;;;;;;;4.20;3.90;;;;;;;-146.32;100.00;63746.28;664021;29;5956;-61
2021/05/07 00:20:57;;;;;;;4.05;3.75;;;;;;;-146.32;100.00;63746.28;662720;29;45312;-63
2021/05/07 00:21:20;;;;;;;4.03;3.72;;;;;;;-146.32;100.00;63746.28;663629;29;15481;-62
2021/05/07 00:21:41;;;;;;;4.22;3.92;;;;;;;-146.32;100.00;63746.28;663172;29;45318;-62
2021/05/07 00:22:02;;;;;;;4.38;4.07;;;;;;;-146.32;100.00;63746.28;663297;29;36668;-61
2021/05/07 00:22:23;;;;;;;4.30;3.95;;;;;;;-146.32;100.00;63746.28;663799;29;23210;-63
2021/05/07 00:22:44;;;;;;;4.05;3.75;;;;;;;-146.32;100.00;63746.28;664135;29;19577;-62
2021/05/07 00:23:06;;;;;;;3.90;3.60;;;;;;;-146.32;100.00;63746.28;663932;29;16648;-63
2021/05/07 00:23:27;;;;;;;4.30;4.00;;;;;;;-146.32;100.00;63746.28;663754;29;22441;-61
2021/05/07 00:23:48;;;;;;;4.30;4.00;;;;;;;-146.32;100.00;63746.28;664453;29;4529;-61
2021/05/07 00:24:10;;;;;;;4.32;4.00;;;;;;;-146.32;100.00;63746.28;663583;29;21790;-62
2021/05/07 00:24:31;;;;;;;4.60;4.20;;;;;;;-146.32;100.00;63746.28;662634;29;46293;-62
2021/05/07 00:24:54;;;;;;;4.18;3.88;;;;;;;-146.32;100.00;63746.28;664118;29;7872;-63
2021/05/07 00:25:15;;;;;;;4.30;3.90;;;;;;;-146.32;100.00;63746.28;662348;29;69223;-62
2021/05/07 00:25:36;;;;;;;4.47;4.07;;;;;;;-146.32;100.00;63746.28;663584;29;24599;-62
2021/05/07 00:25:57;;;;;;;4.68;4.20;;;;;;;-146.32;100.00;63746.28;663649;29;23386;-64
2021/05/07 00:26:18;;;;;;;4.25;3.95;;;;;;;-146.32;100.00;63746.28;664005;29;21413;-62
2021/05/07 00:26:40;;;;;;;4.53;4.18;;;;;;;-146.32;100.00;63746.28;663222;29;44364;-63
2021/05/07 00:27:01;;;;;;;4.55;4.25;;;;;;;-146.32;100.00;63746.28;663828;29;19524;-63
2021/05/07 00:27:22;;;;;;;4.28;3.95;;;;;;;-146.32;100.00;63746.28;663120;29;22408;-63
2021/05/07 00:27:43;;;;;;;4.15;3.85;;;;;;;-146.32;100.00;63746.28;663582;29;21511;-64
2021/05/07 00:28:06;;;;;;;4.43;4.10;;;;;;;-146.32;100.00;63746.28;663593;29;22416;-63
2021/05/07 00:28:27;;;;;;;4.43;4.13;;;;;;;-146.32;100.00;63746.28;662168;29;69034;-63
2021/05/07 00:28:48;;;;;;;4.20;3.90;;;;;;;-146.32;100.00;63746.28;663164;29;12583;-63
2021/05/07 00:29:10;;;;;;;4.30;4.00;;;;;;;-146.32;100.00;63746.28;663821;29;23454;-63
2021/05/07 00:29:31;;;;;;;4.05;3.75;;;;;;;-146.32;100.00;63746.28;662072;29;22422;-64
2021/05/07 00:29:52;;;;;;;4.22;3.83;;;;;;;-146.32;100.00;63746.28;662138;29;22428;-64
2021/05/07 00:30:14;;;;;;;4.47;4.07;;;;;;;-146.32;100.00;63746.28;662277;29;20828;-64
2021/05/07 00:30:37;;;;;;;4.28;3.97;;;;;;;-146.32;100.00;63746.28;659884;29;70187;-64
2021/05/07 00:30:59;;;;;;;4.35;3.95;;;;;;;-146.32;100.00;63746.28;661330;29;46543;-64
2021/05/07 00:31:20;;;;;;;4.50;4.10;;;;;;;-146.32;100.00;63746.28;661843;29;44537;-63
2021/05/07 00:31:41;;;;;;;4.70;4.35;;;;;;;-146.32;100.00;63746.28;664656;29;1011;-64
2021/05/07 00:32:05;;;;;;;5.00;4.50;;;;;;;-146.32;100.00;63746.28;663976;29;15770;-63
2021/05/07 00:32:27;;;;;;;5.15;4.65;;;;;;;-146.32;100.00;63746.28;664056;29;1850;-64
2021/05/07 00:32:50;;;;;;;4.45;4.13;;;;;;;-146.32;100.00;63746.28;664539;29;1314;-64
2021/05/07 00:33:11;;;;;;;4.20;3.80;;;;;;;-146.32;100.00;63746.28;662600;29;23440;-64
2021/05/07 00:33:32;;;;;;;4.10;3.80;;;;;;;-146.32;100.00;63746.28;662580;29;23406;-64
2021/05/07 00:33:54;;;;;;;4.70;4.30;;;;;;;-146.32;100.00;63746.28;662306;29;19970;-64
2021/05/07 00:34:15;;;;;;;4.43;4.10;;;;;;;-146.32;100.00;63746.28;661316;29;37644;-64
2021/05/07 00:34:36;;;;;;;5.18;4.68;;;;;;;-146.32;100.00;63746.28;662568;29;22468;-64
2021/05/07 00:34:57;;;;;;;4.72;4.32;;;;;;;-146.32;100.00;63746.28;662946;29;15228;-64
2021/05/07 00:35:18;;;;;;;4.75;4.28;;;;;;;-146.32;100.00;63746.28;663663;29;17261;-63
2021/05/07 00:35:40;;;;;;;4.97;4.40;;;;;;;-146.32;100.00;63746.28;664037;29;14385;-64
2021/05/07 00:36:01;;;;;;;4.50;4.10;;;;;;;-146.32;100.00;63746.28;663352;29;29646;-64
2021/05/07 00:36:27;;;;;;;4.50;4.20;;;;;;;-146.32;100.00;63746.28;663474;29;36779;-64
2021/05/07 00:36:48;;;;;;;4.80;4.40;;;;;;;-146.32;100.00;63746.28;663396;29;37838;-63
2021/05/07 00:37:10;;;;;;;4.90;4.50;;;;;;;-146.32;100.00;63746.28;662741;29;47087;-64
2021/05/07 00:37:31;;;;;;;4.80;4.40;;;;;;;-146.32;100.00;63746.28;663124;29;22392;-63
2021/05/07 00:37:53;;;;;;;4.70;4.30;;;;;;;-146.32;100.00;63746.28;664165;29;982;-63
2021/05/07 00:38:14;;;;;;;4.50;4.20;;;;;;;-146.32;100.00;63746.28;663143;29;29115;-64
2021/05/07 00:38:36;;;;;;;4.50;4.10;;;;;;;-146.32;100.00;63746.28;663994;29;23820;-64
2021/05/07 00:38:57;;;;;;;4.13;3.83;;;;;;;-146.32;100.00;63746.28;662890;29;46270;-64
2021/05/07 00:39:18;;;;;;;4.22;3.92;;;;;;;-146.32;100.00;63746.28;663090;29;21516;-64
2021/05/07 00:39:39;;;;;;;4.53;4.20;;;;;;;-146.32;100.00;63746.28;664294;29;4283;-62
2021/05/07 00:40:00;;;;;;;4.60;4.20;;;;;;;-146.32;100.00;63746.28;663367;29;22548;-64
2021/05/07 00:40:22;;;;;;;4.40;4.00;;;;;;;-146.32;100.00;63746.28;663359;29;22393;-63
2021/05/07 00:40:44;;;;;;;4.30;4.00;;;;;;;-146.32;100.00;63746.28;662009;29;46503;-63
2021/05/07 00:41:05;;;;;;;4.32;4.00;;;;;;;-146.32;100.00;63746.28;662400;29;44336;-63
2021/05/07 00:41:26;;;;;;;4.57;4.18;;;;;;;-146.32;100.00;63746.28;663095;29;21482;-63
2021/05/07 00:41:48;;;;;;;4.90;4.50;;;;;;;-146.32;100.00;63746.28;662891;29;44189;-63
2021/05/07 00:42:11;;;;;;;4.80;4.38;;;;;;;-146.32;100.00;63746.28;662914;29;23618;-63
2021/05/07 00:42:34;;;;;;;4.50;4.10;;;;;;;-146.32;100.00;63746.28;657630;29;115449;-63
2021/05/07 00:42:55;;;;;;;4.60;4.20;;;;;;;-146.32;100.00;63746.28;659889;29;22273;-63
2021/05/07 00:43:18;;;;;;;4.32;4.03;;;;;;;-146.32;100.00;63746.28;659251;29;69497;-63
2021/05/07 00:43:39;;;;;;;4.80;4.40;;;;;;;-146.32;100.00;63746.28;661158;29;22349;-64
2021/05/07 00:44:01;;;;;;;4.53;4.13;;;;;;;-146.32;100.00;63746.28;658115;29;45226;-64
2021/05/07 00:44:22;;;;;;;4.30;3.97;;;;;;;-146.32;100.00;63746.28;658302;29;43582;-64
2021/05/07 00:44:44;;;;;;;4.90;4.43;;;;;;;-146.32;100.00;63746.28;661749;29;21501;-63
2021/05/07 00:45:06;;;;;;;5.35;4.50;;;;;;;-146.32;100.00;63746.28;659487;29;44325;-63
2021/05/07 00:45:38;;;;;;;4.35;4.00;;;;;;;-146.32;100.00;63746.28;657118;29;98065;-64
2021/05/07 00:45:59;;;;;;;4.10;3.80;;;;;;;-146.32;100.00;63746.28;662890;29;24350;-62
2021/05/07 00:46:21;;;;;;;4.30;3.90;;;;;;;-146.32;100.00;63746.28;664000;29;1199;-64
2021/05/07 00:46:43;;;;;;;4.75;4.30;;;;;;;-146.32;100.00;63746.28;663422;29;23541;-63
2021/05/07 00:47:05;;;;;;;4.90;4.50;;;;;;;-146.32;100.00;63746.28;660130;29;41639;-61
2021/05/07 00:47:29;;;;;;;4.15;3.85;;;;;;;-146.32;100.00;63746.28;657873;30;38550;-63
2021/05/07 00:47:53;;;;;;;4.13;3.83;;;;;;;-146.32;100.00;63746.28;658607;30;21178;-64
2021/05/07 00:48:16;;;;;;;4.13;3.83;;;;;;;-146.32;100.00;63746.28;656350;30;78834;-64
2021/05/07 00:48:39;;;;;;;4.38;4.07;;;;;;;-146.32;100.00;63746.28;656669;30;70228;-62
2021/05/07 00:49:00;;;;;;;4.70;4.30;;;;;;;-146.32;100.00;63746.28;658318;29;69451;-62
2021/05/07 00:49:24;;;;;;;4.97;4.45;;;;;;;-146.32;100.00;63746.28;662528;29;1923;-63
2021/05/07 00:49:45;;;;;;;5.07;4.55;;;;;;;-146.32;100.00;63746.28;664576;29;925;-64
2021/05/07 00:50:11;;;;;;;4.40;4.00;;;;;;;-146.32;100.00;63746.28;660978;29;92264;-63
2021/05/07 00:50:35;;;;;;;5.15;4.43;;;;;;;-146.32;100.00;63746.28;660063;29;49639;-64
2021/05/07 00:50:57;;;;;;;4.68;4.28;;;;;;;-146.32;100.00;63746.28;660444;29;37979;-63
2021/05/07 00:51:20;;;;;;;4.78;4.38;;;;;;;-146.32;100.00;63746.28;659568;29;21484;-64
2021/05/07 00:51:43;;;;;;;4.80;4.40;;;;;;;-146.32;100.00;63746.28;657880;29;65503;-64
2021/05/07 00:52:05;;;;;;;4.85;4.45;;;;;;;-146.32;100.00;63746.28;658667;29;70143;-63
2021/05/07 00:52:27;;;;;;;5.07;4.57;;;;;;;-146.32;100.00;63746.28;661401;29;1905;-64
2021/05/07 00:52:48;;;;;;;5.43;4.70;;;;;;;-146.32;100.00;63746.28;662616;29;23484;-63
2021/05/07 00:53:10;;;;;;;4.78;4.38;;;;;;;-146.32;100.00;63746.28;662519;29;30355;-62
2021/05/07 00:53:31;;;;;;;4.55;4.15;;;;;;;-146.32;100.00;63746.28;662227;29;22420;-63
2021/05/07 00:53:53;;;;;;;4.63;4.22;;;;;;;-146.32;100.00;63746.28;661730;29;21490;-63
2021/05/07 00:54:14;;;;;;;4.78;4.38;;;;;;;-146.32;100.00;63746.28;658610;29;43711;-62
2021/05/07 00:54:36;;;;;;;4.18;3.88;;;;;;;-146.32;100.00;63746.28;660404;29;1129;-64
2021/05/07 00:54:58;;;;;;;4.50;4.10;;;;;;;-146.32;100.00;63746.28;659146;29;32650;-64
2021/05/07 00:55:20;;;;;;;4.63;4.22;;;;;;;-146.32;100.00;63746.28;662276;29;9075;-63
2021/05/07 00:55:51;;;;;;;4.60;4.20;;;;;;;-146.32;100.00;63746.28;659546;29;98682;-64
2021/05/07 00:56:12;;;;;;;4.68;4.28;;;;;;;-146.32;100.00;63746.28;660232;29;22408;-64
2021/05/07 00:56:34;;;;;;;5.15;4.65;;;;;;;-146.32;100.00;63746.28;659983;29;23545;-63
2021/05/07 00:56:55;;;;;;;4.80;4.32;;;;;;;-146.32;100.00;63746.28;661749;29;34519;-64
2021/05/07 00:57:16;;;;;;;4.30;4.00;;;;;;;-146.32;100.00;63746.28;662705;29;20459;-64
2021/05/07 00:57:38;;;;;;;4.45;4.15;;;;;;;-146.32;100.00;63746.28;659619;29;23492;-64
2021/05/07 00:58:00;;;;;;;5.00;4.50;;;;;;;-146.32;100.00;63746.28;658400;29;69651;-62
2021/05/07 00:58:23;;;;;;;4.57;4.28;;;;;;;-146.32;100.00;63746.28;659213;29;45331;-63
2021/05/07 00:58:44;;;;;;;4.78;4.38;;;;;;;-146.32;100.00;63746.28;659106;29;44427;-63
2021/05/07 00:59:06;;;;;;;4.20;3.90;;;;;;;-146.32;100.00;63746.28;659506;29;21571;-62
2021/05/07 00:59:27;;;;;;;4.53;4.13;;;;;;;-146.32;100.00;63746.28;658833;29;46463;-64
2021/05/07 00:59:49;;;;;;;4.40;4.07;;;;;;;-146.32;100.00;63746.28;660824;29;23483;-63
2021/05/07 01:00:11;;;;;;;4.30;4.00;;;;;;;-146.32;100.00;63746.28;660099;29;47612;-62
2021/05/07 01:00:34;;;;;;;4.78;4.38;;;;;;;-146.32;100.00;63746.28;659582;29;65564;-63
2021/05/07 01:00:56;;;;;;;4.43;4.13;;;;;;;-146.32;100.00;63746.28;657010;29;46845;-64
2021/05/07 01:01:20;;;;;;;4.40;4.10;;;;;;;-146.32;100.00;63746.28;656516;30;86395;-63
2021/05/07 01:01:42;;;;;;;4.80;4.40;;;;;;;-146.32;100.00;63746.28;659524;29;19247;-63
2021/05/07 01:02:03;;;;;;;4.45;4.10;;;;;;;-146.32;100.00;63746.28;659019;29;46360;-63
2021/05/07 01:02:24;;;;;;;4.20;3.90;;;;;;;-146.32;100.00;63746.28;660283;29;13569;-61
2021/05/07 01:02:46;;;;;;;4.45;4.05;;;;;;;-146.32;100.00;63746.28;660790;29;23424;-64
2021/05/07 01:03:07;;;;;;;4.90;4.47;;;;;;;-146.32;100.00;63746.28;660273;29;34569;-64
2021/05/07 01:03:28;;;;;;;5.05;4.65;;;;;;;-146.32;100.00;63746.28;660299;29;22497;-63
2021/05/07 01:03:53;;;;;;;4.82;4.40;;;;;;;-146.32;100.00;63746.28;658181;29;115238;-63
2021/05/07 01:04:15;;;;;;;4.90;4.40;;;;;;;-146.32;100.00;63746.28;660646;29;20094;-63
2021/05/07 01:04:36;;;;;;;4.87;4.43;;;;;;;-146.32;100.00;63746.28;661472;29;17380;-63
2021/05/07 01:04:57;;;;;;;4.55;4.25;;;;;;;-146.32;100.00;63746.28;661322;29;45124;-61
2021/05/07 01:05:21;;;;;;;4.70;4.30;;;;;;;-146.32;100.00;63746.28;660758;29;23560;-63
2021/05/07 01:05:43;;;;;;;4.60;4.20;;;;;;;-146.32;100.00;63746.28;658284;29;92244;-62
2021/05/07 01:06:07;;;;;;;5.03;4.50;;;;;;;-146.32;100.00;63746.28;657115;29;114902;-63
2021/05/07 01:06:28;;;;;;;5.10;4.60;;;;;;;-146.32;100.00;63746.28;659511;29;22429;-63
2021/05/07 01:06:51;;;;;;;5.13;4.57;;;;;;;-146.32;100.00;63746.28;659029;29;35707;-63
2021/05/07 01:07:12;;;;;;;4.50;4.10;;;;;;;-146.32;100.00;63746.28;659663;29;45283;-64
2021/05/07 01:07:33;;;;;;;4.85;4.20;;;;;;;-146.32;100.00;63746.28;659619;29;22480;-63
2021/05/07 01:07:56;;;;;;;4.70;4.10;;;;;;;-146.32;100.00;63746.28;659823;29;40965;-63
2021/05/07 01:08:18;;;;;;;4.40;4.00;;;;;;;-146.32;100.00;63746.28;660046;29;46433;-63
2021/05/07 01:08:44;;;;;;;4.18;3.88;;;;;;;-146.32;100.00;63746.28;656269;29;159291;-62
2021/05/07 01:09:05;;;;;;;4.35;4.00;;;;;;;-146.32;100.00;63746.28;656990;29;46382;-64
2021/05/07 01:09:26;;;;;;;4.85;4.45;;;;;;;-146.32;100.00;63746.28;657671;30;23441;-62
2021/05/07 01:09:49;;;;;;;4.55;4.20;;;;;;;-146.32;100.00;63746.28;659063;30;1916;-62
2021/05/07 01:10:12;;;;;;;4.55;4.15;;;;;;;-146.32;100.00;63746.28;657778;29;70167;-63
2021/05/07 01:10:35;;;;;;;4.30;4.00;;;;;;;-146.32;100.00;63746.28;659231;29;69482;-62
2021/05/07 01:10:56;;;;;;;4.82;4.32;;;;;;;-146.32;100.00;63746.28;660026;29;67668;-62
2021/05/07 01:11:18;;;;;;;4.78;4.10;;;;;;;-146.32;100.00;63746.28;662477;29;46323;-62
2021/05/07 01:11:39;;;;;;;4.50;4.15;;;;;;;-146.32;100.00;63746.28;663583;29;22432;-62
2021/05/07 01:12:01;;;;;;;5.07;4.68;;;;;;;-146.32;100.00;63746.28;663827;29;1010;-64
2021/05/07 01:12:23;;;;;;;4.63;4.22;;;;;;;-146.32;100.00;63746.28;661137;29;1931;-63
2021/05/07 01:12:47;;;;;;;4.70;4.30;;;;;;;-146.32;100.00;63746.28;659400;30;1092;-64
2021/05/07 01:13:09;;;;;;;4.80;4.40;;;;;;;-146.32;100.00;63746.28;656607;29;69510;-64
2021/05/07 01:13:30;;;;;;;4.82;4.43;;;;;;;-146.32;100.00;63746.28;657482;30;46104;-62
2021/05/07 01:13:58;;;;;;;4.97;4.53;;;;;;;-146.32;100.00;63746.28;656954;30;59926;-61
2021/05/07 01:14:20;;;;;;;4.97;4.50;;;;;;;-146.32;100.00;63746.28;659755;29;22407;-63
2021/05/07 01:14:41;;;;;;;4.63;4.10;;;;;;;-146.32;100.00;63746.28;661515;29;47415;-63
2021/05/07 01:15:08;;;;;;;4.67;4.27;;;;;;;-146.32;100.00;63746.28;662448;29;47588;-63
2021/05/07 01:15:39;;;;;;;5.03;4.55;;;;;;;-146.32;100.00;63746.28;660464;29;121714;-63
2021/05/07 01:16:04;;;;;;;4.85;4.45;;;;;;;-146.32;100.00;63746.28;659167;29;38812;-61
2021/05/07 01:16:25;;;;;;;4.72;4.30;;;;;;;-146.32;100.00;63746.28;655591;29;102920;-64
2021/05/07 01:16:46;;;;;;;4.68;4.28;;;;;;;-146.32;100.00;63746.28;659366;29;4552;-63
2021/05/07 01:17:07;;;;;;;5.07;4.60;;;;;;;-146.32;100.00;63746.28;658734;30;23553;-63
2021/05/07 01:17:28;;;;;;;4.70;4.30;;;;;;;-146.32;100.00;63746.28;658310;30;22538;-62
2021/05/07 01:17:51;;;;;;;5.00;4.50;;;;;;;-146.32;100.00;63746.28;661227;29;6888;-62
2021/05/07 01:18:12;;;;;;;5.47;4.55;;;;;;;-146.32;100.00;63746.28;656818;30;69564;-61
2021/05/07 01:18:34;;;;;;;4.88;4.40;;;;;;;-146.32;100.00;63746.28;657411;30;17830;-62
2021/05/07 01:18:55;;;;;;;4.70;4.30;;;;;;;-146.32;100.00;63746.28;657638;30;15727;-62
2021/05/07 01:19:17;;;;;;;4.78;4.32;;;;;;;-146.32;100.00;63746.28;657334;30;2193;-60
2021/05/07 01:19:39;;;;;;;5.35;4.72;;;;;;;-146.32;100.00;63746.28;655339;30;45257;-61
2021/05/07 01:20:06;;;;;;;4.72;4.32;;;;;;;-146.32;100.00;63746.28;657763;29;21606;-62
2021/05/07 01:20:28;;;;;;;4.68;4.30;;;;;;;-146.32;100.00;63746.28;657215;29;136324;-63
2021/05/07 01:20:50;;;;;;;4.60;4.20;;;;;;;-146.32;100.00;63746.28;663427;29;29641;-62
2021/05/07 01:21:11;;;;;;;4.80;4.35;;;;;;;-146.32;100.00;63746.28;662695;29;22443;-61
2021/05/07 01:21:32;;;;;;;4.88;4.38;;;;;;;-146.32;100.00;63746.28;662299;29;46244;-63
2021/05/07 01:21:53;;;;;;;4.70;4.30;;;;;;;-146.32;100.00;63746.28;663339;29;17072;-63
2021/05/07 01:22:14;;;;;;;5.10;4.60;;;;;;;-146.32;100.00;63746.28;663510;29;22258;-62
2021/05/07 01:22:38;;;;;;;5.22;4.72;;;;;;;-146.32;100.00;63746.28;660321;29;23500;-60
2021/05/07 01:23:01;;;;;;;5.15;4.65;;;;;;;-146.32;100.00;63746.28;658619;29;90934;-62
2021/05/07 01:23:22;;;;;;;4.93;4.43;;;;;;;-146.32;100.00;63746.28;659345;29;67609;-61
2021/05/07 01:23:43;;;;;;;4.88;4.47;;;;;;;-146.32;100.00;63746.28;660859;29;21093;-64
2021/05/07 01:24:06;;;;;;;5.32;4.80;;;;;;;-146.32;100.00;63746.28;661209;29;19406;-61
2021/05/07 01:24:29;;;;;;;4.88;4.47;;;;;;;-146.32;100.00;63746.28;659327;29;70234;-63
2021/05/07 01:24:50;;;;;;;4.85;4.43;;;;;;;-146.32;100.00;63746.28;661624;29;69308;-62
2021/05/07 01:25:13;;;;;;;5.13;4.60;;;;;;;-146.32;100.00;63746.28;662278;29;22409;-64
2021/05/07 01:25:37;;;;;;;4.78;4.38;;;;;;;-146.32;100.00;63746.28;660235;29;51997;-62
2021/05/07 01:25:59;;;;;;;4.85;4.45;;;;;;;-146.32;100.00;63746.28;662164;29;38656;-62
2021/05/07 01:26:21;;;;;;;4.45;4.15;;;;;;;-146.32;100.00;63746.28;664045;29;1018;-61
2021/05/07 01:26:42;;;;;;;4.68;4.28;;;;;;;-146.32;100.00;63746.28;661166;29;19767;-63
2021/05/07 01:27:04;;;;;;;5.00;4.60;;;;;;;-146.32;100.00;63746.28;660377;29;46824;-63
2021/05/07 01:27:25;;;;;;;4.80;4.40;;;;;;;-146.32;100.00;63746.28;659841;29;23469;-64
2021/05/07 01:27:48;;;;;;;4.97;4.47;;;;;;;-146.32;100.00;63746.28;660016;29;2073;-60
2021/05/07 01:28:12;;;;;;;4.65;4.25;;;;;;;-146.32;100.00;63746.28;658949;29;46341;-64
2021/05/07 01:28:34;;;;;;;4.70;4.38;;;;;;;-146.32;100.00;63746.28;658445;29;90235;-63
2021/05/07 01:28:56;;;;;;;4.60;4.20;;;;;;;-146.32;100.00;63746.28;661537;29;28417;-60
2021/05/07 01:29:17;;;;;;;4.70;4.30;;;;;;;-146.32;100.00;63746.28;659888;29;37196;-60
2021/05/07 01:29:38;;;;;;;5.25;4.80;;;;;;;-146.32;100.00;63746.28;658819;29;22178;-62
2021/05/07 01:29:59;;;;;;;5.63;5.05;;;;;;;-146.32;100.00;63746.28;659464;29;22430;-63
2021/05/07 01:30:24;;;;;;;4.97;4.53;;;;;;;-146.32;100.00;63746.28;659166;30;1919;-62
2021/05/07 01:30:48;;;;;;;4.68;4.28;;;;;;;-146.32;100.00;63746.28;657270;29;69459;-64
2021/05/07 01:31:15;;;;;;;4.93;4.43;;;;;;;-146.32;100.00;63746.28;658427;29;136218;-62
2021/05/07 01:31:36;;;;;;;4.93;4.53;;;;;;;-146.32;100.00;63746.28;662355;29;22401;-63
2021/05/07 01:31:57;;;;;;;4.88;4.47;;;;;;;-146.32;100.00;63746.28;660486;29;22426;-62
2021/05/07 01:32:19;;;;;;;5.30;4.80;;;;;;;-146.32;100.00;63746.28;657333;30;46494;-62
2021/05/07 01:32:40;;;;;;;5.40;4.88;;;;;;;-146.32;100.00;63746.28;657780;30;47453;-60
2021/05/07 01:33:02;;;;;;;5.20;4.70;;;;;;;-146.32;100.00;63746.28;657421;29;22415;-62
2021/05/07 01:33:23;;;;;;;4.75;4.35;;;;;;;-146.32;100.00;63746.28;655845;30;45294;-63
2021/05/07 01:33:45;;;;;;;4.38;4.07;;;;;;;-146.32;100.00;63746.28;657054;29;46312;-64
2021/05/07 01:34:06;;;;;;;4.35;4.05;;;;;;;-146.32;100.00;63746.28;659377;29;16171;-61
2021/05/07 01:34:27;;;;;;;4.90;4.40;;;;;;;-146.32;100.00;63746.28;659333;29;23422;-62
2021/05/07 01:34:49;;;;;;;4.80;4.40;;;;;;;-146.32;100.00;63746.28;657534;30;22183;-62
2021/05/07 01:35:14;;;;;;;4.90;4.50;;;;;;;-146.32;100.00;63746.28;656824;30;21465;-63
2021/05/07 01:35:35;;;;;;;4.88;4.47;;;;;;;-146.32;100.00;63746.28;651255;30;138180;-62
2021/05/07 01:35:57;;;;;;;4.80;4.40;;;;;;;-146.32;100.00;63746.28;652988;30;15331;-62
2021/05/07 01:36:19;;;;;;;4.80;4.40;;;;;;;-146.32;100.00;63746.28;651540;30;45356;-62
2021/05/07 01:36:40;;;;;;;5.18;4.68;;;;;;;-146.32;100.00;63746.28;651890;30;46411;-62
2021/05/07 01:37:01;;;;;;;5.00;4.55;;;;;;;-146.32;100.00;63746.28;655935;30;23501;-61
2021/05/07 01:37:23;;;;;;;4.82;4.43;;;;;;;-146.32;100.00;63746.28;656086;30;13040;-62
2021/05/07 01:37:45;;;;;;;4.80;4.40;;;;;;;-146.32;100.00;63746.28;655692;30;43558;-63
2021/05/07 01:38:08;;;;;;;5.10;4.70;;;;;;;-146.32;100.00;63746.28;654367;30;45280;-62
2021/05/07 01:38:29;;;;;;;5.18;4.78;;;;;;;-146.32;100.00;63746.28;653974;30;69395;-61
2021/05/07 01:38:51;;;;;;;5.00;4.60;;;;;;;-146.32;100.00;63746.28;657602;30;44366;-62
2021/05/07 01:39:12;;;;;;;4.97;4.57;;;;;;;-146.32;100.00;63746.28;659016;29;24427;-62
2021/05/07 01:39:33;;;;;;;5.00;4.60;;;;;;;-146.32;100.00;63746.28;660065;29;23464;-63
2021/05/07 01:39:54;;;;;;;5.00;4.60;;;;;;;-146.32;100.00;63746.28;660814;29;18802;-63
2021/05/07 01:40:18;;;;;;;4.93;4.53;;;;;;;-146.32;100.00;63746.28;663212;29;22423;-62
2021/05/07 01:40:41;;;;;;;5.35;4.85;;;;;;;-146.32;100.00;63746.28;661033;29;90714;-62
2021/05/07 01:41:02;;;;;;;5.32;4.93;;;;;;;-146.32;100.00;63746.28;661008;29;69483;-62